sensor_id;sensor_type;location;lat;lon;timestamp;pressure;altitude;pressure_sealevel;temperature;humidity
64230;BME280;50547;49.498;0.092;2023-04-19T00:01:28;1018.40;;;12.09;74.87
64230;BME280;50547;49.498;0.092;2023-04-19T00:03:57;1018.38;;;12.13;74.85
64230;BME280;50547;49.498;0.092;2023-04-19T00:06:26;1018.49;;;12.09;75.19
64230;BME280;50547;49.498;0.092;2023-04-19T00:08:56;1018.49;;;12.14;74.93
64230;BME280;50547;49.498;0.092;2023-04-19T00:11:25;1018.49;;;12.06;75.52
64230;BME280;50547;49.498;0.092;2023-04-19T00:13:54;1018.49;;;12.20;74.94
64230;BME280;50547;49.498;0.092;2023-04-19T00:16:23;1018.23;;;12.15;75.20
64230;BME280;50547;49.498;0.092;2023-04-19T00:18:53;1018.47;;;12.27;74.66
64230;BME280;50547;49.498;0.092;2023-04-19T00:21:22;1018.47;;;12.33;74.48
64230;BME280;50547;49.498;0.092;2023-04-19T00:23:52;1018.49;;;12.40;74.54
64230;BME280;50547;49.498;0.092;2023-04-19T00:26:21;1018.42;;;12.40;74.80
64230;BME280;50547;49.498;0.092;2023-04-19T00:28:50;1018.42;;;12.44;75.05
64230;BME280;50547;49.498;0.092;2023-04-19T00:31:19;1018.36;;;12.34;75.61
64230;BME280;50547;49.498;0.092;2023-04-19T00:33:48;1018.40;;;12.40;75.59
64230;BME280;50547;49.498;0.092;2023-04-19T00:36:17;1018.23;;;12.37;76.12
64230;BME280;50547;49.498;0.092;2023-04-19T00:38:46;1018.38;;;12.45;76.23
64230;BME280;50547;49.498;0.092;2023-04-19T00:41:16;1018.40;;;12.52;75.96
64230;BME280;50547;49.498;0.092;2023-04-19T00:43:45;1018.23;;;12.56;75.97
64230;BME280;50547;49.498;0.092;2023-04-19T00:46:14;1018.17;;;12.63;75.70
64230;BME280;50547;49.498;0.092;2023-04-19T00:48:43;1018.19;;;12.61;76.21
64230;BME280;50547;49.498;0.092;2023-04-19T00:51:13;1018.21;;;12.64;77.04
64230;BME280;50547;49.498;0.092;2023-04-19T00:53:42;1018.03;;;12.57;77.80
64230;BME280;50547;49.498;0.092;2023-04-19T00:56:12;1018.11;;;12.40;79.50
64230;BME280;50547;49.498;0.092;2023-04-19T00:58:42;1018.15;;;12.32;80.23
64230;BME280;50547;49.498;0.092;2023-04-19T01:01:11;1018.23;;;12.12;81.67
64230;BME280;50547;49.498;0.092;2023-04-19T01:03:40;1018.05;;;12.03;81.97
64230;BME280;50547;49.498;0.092;2023-04-19T01:06:09;1018.07;;;11.98;82.52
64230;BME280;50547;49.498;0.092;2023-04-19T01:08:38;1018.13;;;11.97;82.71
64230;BME280;50547;49.498;0.092;2023-04-19T01:11:07;1018.13;;;11.99;82.54
64230;BME280;50547;49.498;0.092;2023-04-19T01:13:36;1018.15;;;11.98;82.32
64230;BME280;50547;49.498;0.092;2023-04-19T01:16:06;1018.19;;;11.93;82.91
64230;BME280;50547;49.498;0.092;2023-04-19T01:18:35;1018.17;;;11.97;82.77
64230;BME280;50547;49.498;0.092;2023-04-19T01:21:05;1018.17;;;11.95;82.79
64230;BME280;50547;49.498;0.092;2023-04-19T01:23:35;1018.07;;;12.04;82.29
64230;BME280;50547;49.498;0.092;2023-04-19T01:26:05;1018.11;;;11.95;82.64
64230;BME280;50547;49.498;0.092;2023-04-19T01:28:34;1018.05;;;11.99;82.43
64230;BME280;50547;49.498;0.092;2023-04-19T01:31:04;1018.03;;;11.98;82.28
64230;BME280;50547;49.498;0.092;2023-04-19T01:33:33;1018.01;;;12.02;81.93
64230;BME280;50547;49.498;0.092;2023-04-19T01:36:02;1017.97;;;12.11;81.23
64230;BME280;50547;49.498;0.092;2023-04-19T01:38:31;1017.96;;;11.97;81.90
64230;BME280;50547;49.498;0.092;2023-04-19T01:41:01;1017.94;;;11.96;81.69
64230;BME280;50547;49.498;0.092;2023-04-19T01:43:30;1017.96;;;11.90;81.90
64230;BME280;50547;49.498;0.092;2023-04-19T01:45:59;1017.86;;;11.86;81.52
64230;BME280;50547;49.498;0.092;2023-04-19T01:48:28;1017.88;;;11.79;82.07
64230;BME280;50547;49.498;0.092;2023-04-19T01:50:57;1017.88;;;11.81;81.56
64230;BME280;50547;49.498;0.092;2023-04-19T01:53:26;1017.78;;;11.83;81.59
64230;BME280;50547;49.498;0.092;2023-04-19T01:55:56;1017.78;;;11.81;82.19
64230;BME280;50547;49.498;0.092;2023-04-19T01:58:25;1017.76;;;11.78;82.32
64230;BME280;50547;49.498;0.092;2023-04-19T02:00:54;1017.72;;;11.82;82.63
64230;BME280;50547;49.498;0.092;2023-04-19T02:03:23;1017.68;;;11.76;82.77
64230;BME280;50547;49.498;0.092;2023-04-19T02:05:52;1017.60;;;11.67;83.30
64230;BME280;50547;49.498;0.092;2023-04-19T02:08:22;1017.60;;;11.71;83.31
64230;BME280;50547;49.498;0.092;2023-04-19T02:10:51;1017.66;;;11.73;82.78
64230;BME280;50547;49.498;0.092;2023-04-19T02:13:20;1017.64;;;11.60;83.45
64230;BME280;50547;49.498;0.092;2023-04-19T02:15:49;1017.62;;;11.39;84.66
64230;BME280;50547;49.498;0.092;2023-04-19T02:18:18;1017.45;;;11.36;84.47
64230;BME280;50547;49.498;0.092;2023-04-19T02:20:47;1017.55;;;11.28;84.79
64230;BME280;50547;49.498;0.092;2023-04-19T02:23:17;1017.55;;;11.19;84.79
64230;BME280;50547;49.498;0.092;2023-04-19T02:25:46;1017.58;;;11.14;84.89
64230;BME280;50547;49.498;0.092;2023-04-19T02:28:15;1017.55;;;11.09;84.79
64230;BME280;50547;49.498;0.092;2023-04-19T02:30:44;1017.55;;;11.12;84.33
64230;BME280;50547;49.498;0.092;2023-04-19T02:33:14;1017.51;;;11.05;84.31
64230;BME280;50547;49.498;0.092;2023-04-19T02:35:43;1017.57;;;11.10;83.71
64230;BME280;50547;49.498;0.092;2023-04-19T02:38:12;1017.45;;;11.00;83.96
64230;BME280;50547;49.498;0.092;2023-04-19T02:40:41;1017.49;;;10.92;84.51
64230;BME280;50547;49.498;0.092;2023-04-19T02:43:11;1017.47;;;10.86;84.32
64230;BME280;50547;49.498;0.092;2023-04-19T02:45:40;1017.43;;;10.87;84.14
64230;BME280;50547;49.498;0.092;2023-04-19T02:48:09;1017.47;;;10.83;84.11
64230;BME280;50547;49.498;0.092;2023-04-19T02:50:38;1017.53;;;10.86;83.80
64230;BME280;50547;49.498;0.092;2023-04-19T02:53:07;1017.43;;;10.93;82.95
64230;BME280;50547;49.498;0.092;2023-04-19T02:55:36;1017.43;;;10.92;83.06
64230;BME280;50547;49.498;0.092;2023-04-19T02:58:05;1017.43;;;11.05;82.11
64230;BME280;50547;49.498;0.092;2023-04-19T03:00:34;1017.37;;;11.00;82.59
64230;BME280;50547;49.498;0.092;2023-04-19T03:03:04;1017.41;;;11.02;82.54
64230;BME280;50547;49.498;0.092;2023-04-19T03:05:33;1017.37;;;11.03;82.25
64230;BME280;50547;49.498;0.092;2023-04-19T03:08:02;1017.37;;;11.00;82.68
64230;BME280;50547;49.498;0.092;2023-04-19T03:10:31;1017.37;;;11.09;82.00
64230;BME280;50547;49.498;0.092;2023-04-19T03:12:57;1017.37;;;11.08;82.16
64230;BME280;50547;49.498;0.092;2023-04-19T03:15:26;1017.41;;;11.12;81.87
64230;BME280;50547;49.498;0.092;2023-04-19T03:17:56;1017.33;;;11.20;81.52
64230;BME280;50547;49.498;0.092;2023-04-19T03:20:25;1017.35;;;11.29;80.90
64230;BME280;50547;49.498;0.092;2023-04-19T03:22:54;1017.37;;;11.35;80.75
64230;BME280;50547;49.498;0.092;2023-04-19T03:25:23;1017.35;;;11.42;80.02
64230;BME280;50547;49.498;0.092;2023-04-19T03:27:49;1017.31;;;11.44;80.35
64230;BME280;50547;49.498;0.092;2023-04-19T03:30:19;1017.33;;;11.48;80.20
64230;BME280;50547;49.498;0.092;2023-04-19T03:32:48;1017.23;;;11.48;80.19
64230;BME280;50547;49.498;0.092;2023-04-19T03:35:13;1017.27;;;11.45;80.44
64230;BME280;50547;49.498;0.092;2023-04-19T03:37:42;1017.25;;;11.43;80.49
64230;BME280;50547;49.498;0.092;2023-04-19T03:40:12;1017.27;;;11.41;80.35
64230;BME280;50547;49.498;0.092;2023-04-19T03:42:41;1017.31;;;11.38;80.73
64230;BME280;50547;49.498;0.092;2023-04-19T03:45:11;1017.19;;;11.40;80.46
64230;BME280;50547;49.498;0.092;2023-04-19T03:47:40;1017.17;;;11.45;80.07
64230;BME280;50547;49.498;0.092;2023-04-19T03:50:09;1017.23;;;11.38;80.41
64230;BME280;50547;49.498;0.092;2023-04-19T03:52:38;1017.21;;;11.34;80.74
64230;BME280;50547;49.498;0.092;2023-04-19T03:55:09;1017.10;;;11.30;80.92
64230;BME280;50547;49.498;0.092;2023-04-19T03:57:38;1017.19;;;11.33;80.81
64230;BME280;50547;49.498;0.092;2023-04-19T04:00:08;1017.10;;;11.32;80.77
64230;BME280;50547;49.498;0.092;2023-04-19T04:02:38;1017.27;;;11.37;80.39
64230;BME280;50547;49.498;0.092;2023-04-19T04:05:07;1017.33;;;11.38;80.44
64230;BME280;50547;49.498;0.092;2023-04-19T04:07:33;1017.25;;;11.41;80.30
64230;BME280;50547;49.498;0.092;2023-04-19T04:10:03;1017.19;;;11.43;80.25
64230;BME280;50547;49.498;0.092;2023-04-19T04:12:29;1017.27;;;11.45;80.24
64230;BME280;50547;49.498;0.092;2023-04-19T04:14:58;1017.08;;;11.44;80.24
64230;BME280;50547;49.498;0.092;2023-04-19T04:17:27;1017.23;;;11.45;80.36
64230;BME280;50547;49.498;0.092;2023-04-19T04:19:53;1017.25;;;11.46;80.25
64230;BME280;50547;49.498;0.092;2023-04-19T04:22:22;1017.25;;;11.43;80.43
64230;BME280;50547;49.498;0.092;2023-04-19T04:24:52;1017.13;;;11.41;80.63
64230;BME280;50547;49.498;0.092;2023-04-19T04:27:21;1017.25;;;11.53;79.80
64230;BME280;50547;49.498;0.092;2023-04-19T04:29:50;1017.25;;;11.54;79.78
64230;BME280;50547;49.498;0.092;2023-04-19T04:32:20;1017.11;;;11.53;79.85
64230;BME280;50547;49.498;0.092;2023-04-19T04:34:49;1017.17;;;11.51;80.09
64230;BME280;50547;49.498;0.092;2023-04-19T04:37:15;1017.17;;;11.54;79.88
64230;BME280;50547;49.498;0.092;2023-04-19T04:39:44;1017.19;;;11.60;79.52
64230;BME280;50547;49.498;0.092;2023-04-19T04:42:13;1017.23;;;11.58;79.64
64230;BME280;50547;49.498;0.092;2023-04-19T04:44:43;1017.29;;;11.64;79.35
64230;BME280;50547;49.498;0.092;2023-04-19T04:47:12;1017.19;;;11.67;79.29
64230;BME280;50547;49.498;0.092;2023-04-19T04:49:41;1017.21;;;11.71;78.94
64230;BME280;50547;49.498;0.092;2023-04-19T04:52:11;1017.21;;;11.73;78.91
64230;BME280;50547;49.498;0.092;2023-04-19T04:54:40;1017.17;;;11.74;78.90
64230;BME280;50547;49.498;0.092;2023-04-19T04:57:09;1017.10;;;11.79;78.58
64230;BME280;50547;49.498;0.092;2023-04-19T04:59:38;1017.10;;;11.80;78.62
64230;BME280;50547;49.498;0.092;2023-04-19T05:02:07;1017.19;;;11.85;78.08
64230;BME280;50547;49.498;0.092;2023-04-19T05:04:36;1017.23;;;11.95;77.75
64230;BME280;50547;49.498;0.092;2023-04-19T05:07:06;1017.21;;;11.96;77.64
64230;BME280;50547;49.498;0.092;2023-04-19T05:09:35;1017.17;;;12.02;77.56
64230;BME280;50547;49.498;0.092;2023-04-19T05:12:04;1017.31;;;12.03;77.48
64230;BME280;50547;49.498;0.092;2023-04-19T05:14:34;1017.29;;;12.05;77.31
64230;BME280;50547;49.498;0.092;2023-04-19T05:17:03;1017.29;;;12.03;77.49
64230;BME280;50547;49.498;0.092;2023-04-19T05:19:32;1017.39;;;12.07;77.26
64230;BME280;50547;49.498;0.092;2023-04-19T05:22:01;1017.31;;;12.09;77.22
64230;BME280;50547;49.498;0.092;2023-04-19T05:24:30;1017.39;;;12.10;77.24
64230;BME280;50547;49.498;0.092;2023-04-19T05:26:59;1017.37;;;12.10;77.14
64230;BME280;50547;49.498;0.092;2023-04-19T05:29:28;1017.33;;;12.10;76.86
64230;BME280;50547;49.498;0.092;2023-04-19T05:31:58;1017.33;;;12.07;77.10
64230;BME280;50547;49.498;0.092;2023-04-19T05:34:27;1017.47;;;12.10;76.96
64230;BME280;50547;49.498;0.092;2023-04-19T05:36:56;1017.43;;;12.14;76.88
64230;BME280;50547;49.498;0.092;2023-04-19T05:39:25;1017.33;;;12.17;76.57
64230;BME280;50547;49.498;0.092;2023-04-19T05:41:54;1017.37;;;12.22;76.11
64230;BME280;50547;49.498;0.092;2023-04-19T05:44:24;1017.45;;;12.19;76.44
64230;BME280;50547;49.498;0.092;2023-04-19T05:46:53;1017.33;;;12.18;76.53
64230;BME280;50547;49.498;0.092;2023-04-19T05:49:22;1017.49;;;12.23;76.40
64230;BME280;50547;49.498;0.092;2023-04-19T05:51:51;1017.57;;;12.19;76.61
64230;BME280;50547;49.498;0.092;2023-04-19T05:54:20;1017.53;;;12.22;76.52
64230;BME280;50547;49.498;0.092;2023-04-19T05:56:49;1017.45;;;12.31;76.06
64230;BME280;50547;49.498;0.092;2023-04-19T05:59:19;1017.58;;;12.42;75.53
64230;BME280;50547;49.498;0.092;2023-04-19T06:01:48;1017.55;;;12.47;75.45
64230;BME280;50547;49.498;0.092;2023-04-19T06:04:17;1017.49;;;12.60;74.65
64230;BME280;50547;49.498;0.092;2023-04-19T06:06:46;1017.53;;;12.54;75.12
64230;BME280;50547;49.498;0.092;2023-04-19T06:09:15;1017.60;;;12.85;73.91
64230;BME280;50547;49.498;0.092;2023-04-19T06:11:45;1017.58;;;12.97;73.50
64230;BME280;50547;49.498;0.092;2023-04-19T06:14:14;1017.62;;;13.15;72.77
64230;BME280;50547;49.498;0.092;2023-04-19T06:16:43;1017.53;;;13.30;72.22
64230;BME280;50547;49.498;0.092;2023-04-19T06:19:12;1017.51;;;13.41;72.03
64230;BME280;50547;49.498;0.092;2023-04-19T06:21:41;1017.53;;;13.29;72.48
64230;BME280;50547;49.498;0.092;2023-04-19T06:24:11;1017.57;;;13.26;72.94
64230;BME280;50547;49.498;0.092;2023-04-19T06:26:40;1017.58;;;13.23;72.73
64230;BME280;50547;49.498;0.092;2023-04-19T06:29:09;1017.58;;;13.16;73.02
64230;BME280;50547;49.498;0.092;2023-04-19T06:31:38;1017.57;;;13.10;73.27
64230;BME280;50547;49.498;0.092;2023-04-19T06:34:07;1017.58;;;13.35;71.99
64230;BME280;50547;49.498;0.092;2023-04-19T06:36:37;1017.58;;;13.33;71.92
64230;BME280;50547;49.498;0.092;2023-04-19T06:39:06;1017.57;;;13.19;72.64
64230;BME280;50547;49.498;0.092;2023-04-19T06:41:35;1017.57;;;13.22;72.65
64230;BME280;50547;49.498;0.092;2023-04-19T06:44:04;1017.57;;;13.26;72.59
64230;BME280;50547;49.498;0.092;2023-04-19T06:46:33;1017.55;;;13.34;71.89
64230;BME280;50547;49.498;0.092;2023-04-19T06:49:03;1017.60;;;13.32;71.92
64230;BME280;50547;49.498;0.092;2023-04-19T06:51:32;1017.58;;;13.43;71.49
64230;BME280;50547;49.498;0.092;2023-04-19T06:54:02;1017.68;;;13.43;71.39
64230;BME280;50547;49.498;0.092;2023-04-19T06:56:40;1017.66;;;13.45;71.17
64230;BME280;50547;49.498;0.092;2023-04-19T06:59:09;1017.62;;;13.68;70.64
64230;BME280;50547;49.498;0.092;2023-04-19T07:01:39;1017.72;;;13.71;70.52
64230;BME280;50547;49.498;0.092;2023-04-19T07:04:08;1017.70;;;13.44;71.80
64230;BME280;50547;49.498;0.092;2023-04-19T07:06:38;1017.64;;;13.49;71.46
64230;BME280;50547;49.498;0.092;2023-04-19T07:09:07;1017.64;;;13.56;71.28
64230;BME280;50547;49.498;0.092;2023-04-19T07:11:36;1017.70;;;13.42;71.71
64230;BME280;50547;49.498;0.092;2023-04-19T07:14:20;1017.74;;;13.53;71.01
64230;BME280;50547;49.498;0.092;2023-04-19T07:16:50;1017.72;;;13.58;70.79
64230;BME280;50547;49.498;0.092;2023-04-19T07:19:19;1017.58;;;13.75;70.07
64230;BME280;50547;49.498;0.092;2023-04-19T07:21:49;1017.72;;;13.77;70.26
64230;BME280;50547;49.498;0.092;2023-04-19T07:24:18;1017.70;;;13.61;70.83
64230;BME280;50547;49.498;0.092;2023-04-19T07:26:47;1017.64;;;13.54;71.08
64230;BME280;50547;49.498;0.092;2023-04-19T07:29:16;1017.70;;;13.70;70.38
64230;BME280;50547;49.498;0.092;2023-04-19T07:31:45;1017.72;;;13.71;70.51
64230;BME280;50547;49.498;0.092;2023-04-19T07:34:15;1017.68;;;14.03;69.12
64230;BME280;50547;49.498;0.092;2023-04-19T07:36:44;1017.64;;;14.43;67.73
64230;BME280;50547;49.498;0.092;2023-04-19T07:39:13;1017.60;;;14.52;67.22
64230;BME280;50547;49.498;0.092;2023-04-19T07:41:43;1017.64;;;14.71;66.83
64230;BME280;50547;49.498;0.092;2023-04-19T07:44:13;1017.60;;;14.80;66.85
64230;BME280;50547;49.498;0.092;2023-04-19T07:46:42;1017.62;;;15.18;65.73
64230;BME280;50547;49.498;0.092;2023-04-19T07:49:12;1017.60;;;15.53;64.81
64230;BME280;50547;49.498;0.092;2023-04-19T07:51:41;1017.60;;;15.34;65.20
64230;BME280;50547;49.498;0.092;2023-04-19T07:54:11;1017.64;;;15.64;65.06
64230;BME280;50547;49.498;0.092;2023-04-19T07:56:40;1017.64;;;15.64;64.65
64230;BME280;50547;49.498;0.092;2023-04-19T07:59:09;1017.68;;;15.63;65.07
64230;BME280;50547;49.498;0.092;2023-04-19T08:01:38;1017.66;;;15.84;64.28
64230;BME280;50547;49.498;0.092;2023-04-19T08:04:07;1017.66;;;15.78;64.39
64230;BME280;50547;49.498;0.092;2023-04-19T08:06:37;1017.70;;;15.77;64.32
64230;BME280;50547;49.498;0.092;2023-04-19T08:09:06;1017.74;;;15.84;64.25
64230;BME280;50547;49.498;0.092;2023-04-19T08:11:35;1017.66;;;15.62;64.98
64230;BME280;50547;49.498;0.092;2023-04-19T08:14:04;1017.72;;;15.75;64.55
64230;BME280;50547;49.498;0.092;2023-04-19T08:16:33;1017.70;;;16.00;63.38
64230;BME280;50547;49.498;0.092;2023-04-19T08:19:03;1017.72;;;16.20;62.86
64230;BME280;50547;49.498;0.092;2023-04-19T08:21:32;1017.72;;;16.27;62.75
64230;BME280;50547;49.498;0.092;2023-04-19T08:24:01;1017.51;;;16.33;62.62
64230;BME280;50547;49.498;0.092;2023-04-19T08:26:30;1017.66;;;16.08;63.89
64230;BME280;50547;49.498;0.092;2023-04-19T08:28:59;1017.68;;;15.94;64.48
64230;BME280;50547;49.498;0.092;2023-04-19T08:31:28;1017.58;;;16.11;63.39
64230;BME280;50547;49.498;0.092;2023-04-19T08:33:57;1017.55;;;16.36;62.06
64230;BME280;50547;49.498;0.092;2023-04-19T08:36:26;1017.62;;;16.63;61.77
64230;BME280;50547;49.498;0.092;2023-04-19T08:38:56;1017.62;;;16.53;62.09
64230;BME280;50547;49.498;0.092;2023-04-19T08:41:25;1017.60;;;16.42;63.36
64230;BME280;50547;49.498;0.092;2023-04-19T08:43:57;1017.62;;;16.26;63.84
64230;BME280;50547;49.498;0.092;2023-04-19T08:46:26;1017.58;;;16.37;63.01
64230;BME280;50547;49.498;0.092;2023-04-19T08:48:57;1017.60;;;16.37;63.15
64230;BME280;50547;49.498;0.092;2023-04-19T08:51:27;1017.58;;;16.51;62.91
64230;BME280;50547;49.498;0.092;2023-04-19T08:53:57;1017.64;;;16.75;62.13
64230;BME280;50547;49.498;0.092;2023-04-19T08:56:27;1017.53;;;16.72;61.69
64230;BME280;50547;49.498;0.092;2023-04-19T08:58:57;1017.66;;;16.82;61.61
64230;BME280;50547;49.498;0.092;2023-04-19T09:01:26;1017.68;;;17.24;60.57
64230;BME280;50547;49.498;0.092;2023-04-19T09:03:55;1017.60;;;17.23;60.11
64230;BME280;50547;49.498;0.092;2023-04-19T09:06:25;1017.66;;;17.26;60.08
64230;BME280;50547;49.498;0.092;2023-04-19T09:09:13;1017.58;;;17.31;60.32
64230;BME280;50547;49.498;0.092;2023-04-19T09:11:42;1017.62;;;17.72;59.00
64230;BME280;50547;49.498;0.092;2023-04-19T09:14:13;1017.51;;;17.79;58.58
64230;BME280;50547;49.498;0.092;2023-04-19T09:16:43;1017.70;;;17.77;58.86
64230;BME280;50547;49.498;0.092;2023-04-19T09:19:13;1017.53;;;18.07;58.10
64230;BME280;50547;49.498;0.092;2023-04-19T09:21:42;1017.68;;;18.17;58.40
64230;BME280;50547;49.498;0.092;2023-04-19T09:24:11;1017.64;;;18.33;57.46
64230;BME280;50547;49.498;0.092;2023-04-19T09:26:52;1017.53;;;18.69;56.77
64230;BME280;50547;49.498;0.092;2023-04-19T09:29:22;1017.53;;;18.80;57.04
64230;BME280;50547;49.498;0.092;2023-04-19T09:31:58;1017.53;;;18.47;58.00
64230;BME280;50547;49.498;0.092;2023-04-19T09:34:28;1017.58;;;18.96;56.02
64230;BME280;50547;49.498;0.092;2023-04-19T09:37:10;1017.55;;;18.97;56.08
64230;BME280;50547;49.498;0.092;2023-04-19T09:39:39;1017.60;;;19.41;54.78
64230;BME280;50547;49.498;0.092;2023-04-19T09:42:09;1017.53;;;19.33;55.78
64230;BME280;50547;49.498;0.092;2023-04-19T09:44:38;1017.58;;;19.42;55.08
64230;BME280;50547;49.498;0.092;2023-04-19T09:47:21;1017.57;;;19.43;54.93
64230;BME280;50547;49.498;0.092;2023-04-19T09:50:07;1017.60;;;19.95;53.05
64230;BME280;50547;49.498;0.092;2023-04-19T09:52:37;1017.58;;;19.88;54.26
64230;BME280;50547;49.498;0.092;2023-04-19T09:55:07;1017.57;;;19.55;56.41
64230;BME280;50547;49.498;0.092;2023-04-19T09:58:25;1017.47;;;19.76;54.44
64230;BME280;50547;49.498;0.092;2023-04-19T10:00:55;1017.39;;;19.16;56.35
64230;BME280;50547;49.498;0.092;2023-04-19T10:03:26;1017.47;;;18.98;58.18
64230;BME280;50547;49.498;0.092;2023-04-19T10:05:57;1017.47;;;19.21;56.17
64230;BME280;50547;49.498;0.092;2023-04-19T10:08:26;1017.37;;;19.23;55.57
64230;BME280;50547;49.498;0.092;2023-04-19T10:10:56;1017.41;;;19.37;55.16
64230;BME280;50547;49.498;0.092;2023-04-19T10:13:25;1017.37;;;19.28;55.76
64230;BME280;50547;49.498;0.092;2023-04-19T10:15:55;1017.41;;;19.38;56.00
64230;BME280;50547;49.498;0.092;2023-04-19T10:18:24;1017.17;;;18.70;58.14
64230;BME280;50547;49.498;0.092;2023-04-19T10:20:57;1017.37;;;18.76;57.54
64230;BME280;50547;49.498;0.092;2023-04-19T10:23:27;1017.31;;;19.17;55.08
64230;BME280;50547;49.498;0.092;2023-04-19T10:25:57;1017.27;;;19.11;54.88
64230;BME280;50547;49.498;0.092;2023-04-19T10:28:27;1017.19;;;19.51;53.97
64230;BME280;50547;49.498;0.092;2023-04-19T10:30:59;1017.27;;;19.87;53.18
64230;BME280;50547;49.498;0.092;2023-04-19T10:33:33;1017.13;;;20.20;51.57
64230;BME280;50547;49.498;0.092;2023-04-19T10:36:03;1017.11;;;20.06;52.75
64230;BME280;50547;49.498;0.092;2023-04-19T10:38:38;1017.15;;;19.93;53.71
64230;BME280;50547;49.498;0.092;2023-04-19T10:41:07;1017.13;;;20.30;52.64
64230;BME280;50547;49.498;0.092;2023-04-19T10:43:37;1017.11;;;20.30;53.02
64230;BME280;50547;49.498;0.092;2023-04-19T10:46:08;1017.10;;;20.13;53.33
64230;BME280;50547;49.498;0.092;2023-04-19T10:48:40;1017.08;;;20.52;51.82
64230;BME280;50547;49.498;0.092;2023-04-19T10:51:12;1017.04;;;20.48;51.48
64230;BME280;50547;49.498;0.092;2023-04-19T10:53:43;1017.06;;;20.44;52.48
64230;BME280;50547;49.498;0.092;2023-04-19T10:56:13;1017.08;;;20.70;52.14
64230;BME280;50547;49.498;0.092;2023-04-19T10:59:15;1017.08;;;21.33;49.94
64230;BME280;50547;49.498;0.092;2023-04-19T11:01:46;1017.10;;;21.44;49.45
64230;BME280;50547;49.498;0.092;2023-04-19T11:04:17;1017.10;;;21.12;51.42
64230;BME280;50547;49.498;0.092;2023-04-19T11:07:04;1017.04;;;21.29;51.08
64230;BME280;50547;49.498;0.092;2023-04-19T11:09:35;1017.02;;;21.08;50.72
64230;BME280;50547;49.498;0.092;2023-04-19T11:12:06;1016.92;;;21.28;49.81
64230;BME280;50547;49.498;0.092;2023-04-19T11:14:38;1017.02;;;21.14;50.87
64230;BME280;50547;49.498;0.092;2023-04-19T11:17:14;1016.96;;;21.30;49.88
64230;BME280;50547;49.498;0.092;2023-04-19T11:19:44;1017.00;;;21.25;49.96
64230;BME280;50547;49.498;0.092;2023-04-19T11:22:25;1016.72;;;21.02;50.66
64230;BME280;50547;49.498;0.092;2023-04-19T11:24:54;1016.88;;;20.51;52.10
64230;BME280;50547;49.498;0.092;2023-04-19T11:27:23;1016.70;;;20.69;50.53
64230;BME280;50547;49.498;0.092;2023-04-19T11:30:01;1016.82;;;21.22;49.32
64230;BME280;50547;49.498;0.092;2023-04-19T11:32:30;1016.55;;;21.04;48.60
64230;BME280;50547;49.498;0.092;2023-04-19T11:35:08;1016.76;;;20.89;49.59
64230;BME280;50547;49.498;0.092;2023-04-19T11:37:36;1016.70;;;20.69;50.66
64230;BME280;50547;49.498;0.092;2023-04-19T11:40:06;1016.68;;;20.98;50.04
64230;BME280;50547;49.498;0.092;2023-04-19T11:42:35;1016.72;;;21.28;47.78
64230;BME280;50547;49.498;0.092;2023-04-19T11:45:06;1016.57;;;21.02;49.01
64230;BME280;50547;49.498;0.092;2023-04-19T11:47:46;1016.51;;;20.65;50.47
64230;BME280;50547;49.498;0.092;2023-04-19T11:50:33;1016.53;;;20.88;49.68
64230;BME280;50547;49.498;0.092;2023-04-19T11:53:14;1016.51;;;20.80;49.10
64230;BME280;50547;49.498;0.092;2023-04-19T11:55:45;1016.47;;;20.75;50.14
64230;BME280;50547;49.498;0.092;2023-04-19T11:58:23;1016.43;;;20.75;49.81
64230;BME280;50547;49.498;0.092;2023-04-19T12:00:53;1016.47;;;21.12;48.46
64230;BME280;50547;49.498;0.092;2023-04-19T12:03:22;1016.37;;;21.67;46.92
64230;BME280;50547;49.498;0.092;2023-04-19T12:05:53;1016.39;;;21.65;47.45
64230;BME280;50547;49.498;0.092;2023-04-19T12:08:31;1016.37;;;20.50;52.88
64230;BME280;50547;49.498;0.092;2023-04-19T12:11:02;1016.43;;;20.43;52.69
64230;BME280;50547;49.498;0.092;2023-04-19T12:13:32;1016.31;;;20.29;51.95
64230;BME280;50547;49.498;0.092;2023-04-19T12:16:02;1016.39;;;20.66;50.15
64230;BME280;50547;49.498;0.092;2023-04-19T12:18:48;1016.41;;;21.00;48.97
64230;BME280;50547;49.498;0.092;2023-04-19T12:21:26;1016.39;;;21.56;47.90
64230;BME280;50547;49.498;0.092;2023-04-19T12:23:56;1016.41;;;20.90;50.06
64230;BME280;50547;49.498;0.092;2023-04-19T12:26:26;1016.12;;;21.22;48.84
64230;BME280;50547;49.498;0.092;2023-04-19T12:28:56;1016.31;;;21.08;49.33
64230;BME280;50547;49.498;0.092;2023-04-19T12:31:26;1016.33;;;20.83;51.22
64230;BME280;50547;49.498;0.092;2023-04-19T12:33:55;1016.21;;;21.07;49.29
64230;BME280;50547;49.498;0.092;2023-04-19T12:36:24;1016.04;;;21.42;48.52
64230;BME280;50547;49.498;0.092;2023-04-19T12:38:53;1016.29;;;21.61;47.42
64230;BME280;50547;49.498;0.092;2023-04-19T12:41:23;1016.14;;;21.49;48.00
64230;BME280;50547;49.498;0.092;2023-04-19T12:43:52;1016.21;;;21.23;49.24
64230;BME280;50547;49.498;0.092;2023-04-19T12:46:21;1016.19;;;21.13;49.76
64230;BME280;50547;49.498;0.092;2023-04-19T12:48:51;1016.27;;;21.48;48.03
64230;BME280;50547;49.498;0.092;2023-04-19T12:51:20;1016.35;;;21.62;47.88
64230;BME280;50547;49.498;0.092;2023-04-19T12:53:50;1016.27;;;21.49;48.22
64230;BME280;50547;49.498;0.092;2023-04-19T12:56:20;1016.29;;;21.52;48.19
64230;BME280;50547;49.498;0.092;2023-04-19T12:58:49;1016.31;;;21.15;49.67
64230;BME280;50547;49.498;0.092;2023-04-19T13:01:18;1016.25;;;21.13;50.19
64230;BME280;50547;49.498;0.092;2023-04-19T13:03:47;1016.29;;;21.79;47.48
64230;BME280;50547;49.498;0.092;2023-04-19T13:06:16;1016.14;;;22.27;46.23
64230;BME280;50547;49.498;0.092;2023-04-19T13:08:45;1016.19;;;22.13;46.65
64230;BME280;50547;49.498;0.092;2023-04-19T13:11:15;1016.16;;;21.93;47.23
64230;BME280;50547;49.498;0.092;2023-04-19T13:13:50;1016.21;;;21.77;47.12
64230;BME280;50547;49.498;0.092;2023-04-19T13:16:19;1016.08;;;21.92;46.19
64230;BME280;50547;49.498;0.092;2023-04-19T13:18:48;1016.04;;;21.83;46.15
64230;BME280;50547;49.498;0.092;2023-04-19T13:21:18;1016.02;;;22.08;45.70
64230;BME280;50547;49.498;0.092;2023-04-19T13:23:47;1016.08;;;21.68;47.14
64230;BME280;50547;49.498;0.092;2023-04-19T13:26:16;1016.00;;;21.70;47.58